KMHK/MHK METAR and TAF weather

Enter ICAO airport designator
Station Type Date Time Source
KMHK METAR 2018/12/15 21:52 UTC NOAA

KMHK 152152Z 21003KT 10SM CLR 13/M04 A3013 RMK AO2 SLP212 T01331039


Station Type Date Time Source
KMHK Decoded METAR 2018/12/15 21:52 UTC NOAA

MANHATTAN REGIONAL AIRPORT, KS, United States (KMHK) 39-08N 96-41W 317M
Dec 15, 2018 - 04:52 PM EST / 2018.12.15 2152 UTC
Wind: from the SSW (210 degrees) at 3 MPH (3 KT):0
Visibility: 10 mile(s):0
Sky conditions: clear
Temperature: 55.9 F (13.3 C)
Dew Point: 25.0 F (-3.9 C)
Relative Humidity: 29%
Pressure (altimeter): 30.13 in. Hg (1020 hPa)
ob: KMHK 152152Z 21003KT 10SM CLR 13/M04 A3013 RMK AO2 SLP212 T01331039
cycle: 22

Station Type Date Time Source
KMHK TAF 2018/12/15 18:22 UTC NOAA

TAF KMHK 151720Z 1518/1618 19004KT P6SM SCT250


Example: see airport list